sensor_id;sensor_type;location;lat;lon;timestamp;pressure;altitude;pressure_sealevel;temperature;humidity
70921;BME280;58572;48.110;19.838;2022-12-07T00:01:10;97563.03;;;3.41;80.52
70921;BME280;58572;48.110;19.838;2022-12-07T00:03:39;97574.78;;;3.73;79.33
70921;BME280;58572;48.110;19.838;2022-12-07T00:06:08;97576.13;;;3.54;80.18
70921;BME280;58572;48.110;19.838;2022-12-07T00:08:37;97567.34;;;3.80;79.79
70921;BME280;58572;48.110;19.838;2022-12-07T00:11:05;97561.78;;;3.65;79.65
70921;BME280;58572;48.110;19.838;2022-12-07T00:13:33;97564.72;;;3.47;80.28
70921;BME280;58572;48.110;19.838;2022-12-07T00:16:01;97565.31;;;3.32;80.74
70921;BME280;58572;48.110;19.838;2022-12-07T00:18:28;97567.72;;;3.67;79.30
70921;BME280;58572;48.110;19.838;2022-12-07T00:21:00;97559.78;;;3.77;78.94
70921;BME280;58572;48.110;19.838;2022-12-07T00:23:28;97558.78;;;3.83;79.36
70921;BME280;58572;48.110;19.838;2022-12-07T00:25:55;97557.59;;;3.74;78.92
70921;BME280;58572;48.110;19.838;2022-12-07T00:28:22;97556.00;;;3.57;79.30
70921;BME280;58572;48.110;19.838;2022-12-07T00:30:49;97411.66;;;2.80;79.26
70921;BME280;58572;48.110;19.838;2022-12-07T00:33:16;97551.41;;;3.74;79.43
70921;BME280;58572;48.110;19.838;2022-12-07T00:35:43;97543.97;;;3.81;78.81
70921;BME280;58572;48.110;19.838;2022-12-07T00:38:12;97524.84;;;3.77;78.65
70921;BME280;58572;48.110;19.838;2022-12-07T00:40:39;97549.09;;;3.82;78.76
70921;BME280;58572;48.110;19.838;2022-12-07T00:43:05;97549.63;;;3.63;79.05
70921;BME280;58572;48.110;19.838;2022-12-07T00:45:33;97551.44;;;3.57;79.96
70921;BME280;58572;48.110;19.838;2022-12-07T00:48:00;97551.41;;;3.74;78.91
70921;BME280;58572;48.110;19.838;2022-12-07T00:50:27;97545.59;;;3.82;78.89
70921;BME280;58572;48.110;19.838;2022-12-07T00:52:54;97553.72;;;3.65;79.26
70921;BME280;58572;48.110;19.838;2022-12-07T00:55:23;97547.75;;;3.63;79.58
70921;BME280;58572;48.110;19.838;2022-12-07T00:57:50;97547.13;;;3.95;77.93
70921;BME280;58572;48.110;19.838;2022-12-07T01:00:17;97545.78;;;3.75;77.75
70921;BME280;58572;48.110;19.838;2022-12-07T01:02:44;97544.34;;;3.90;77.69
70921;BME280;58572;48.110;19.838;2022-12-07T01:05:12;97544.09;;;3.69;78.88
70921;BME280;58572;48.110;19.838;2022-12-07T01:07:39;97542.31;;;3.58;79.51
70921;BME280;58572;48.110;19.838;2022-12-07T01:10:07;97540.84;;;3.67;78.76
70921;BME280;58572;48.110;19.838;2022-12-07T01:12:35;97529.53;;;4.09;78.00
70921;BME280;58572;48.110;19.838;2022-12-07T01:15:03;97531.28;;;3.98;77.52
70921;BME280;58572;48.110;19.838;2022-12-07T01:17:30;97530.41;;;3.71;78.92
70921;BME280;58572;48.110;19.838;2022-12-07T01:19:57;97453.97;;;3.23;78.31
70921;BME280;58572;48.110;19.838;2022-12-07T01:22:24;97500.50;;;3.67;78.75
70921;BME280;58572;48.110;19.838;2022-12-07T01:24:51;97523.72;;;3.73;78.57
70921;BME280;58572;48.110;19.838;2022-12-07T01:27:18;97497.47;;;3.80;78.73
70921;BME280;58572;48.110;19.838;2022-12-07T01:29:47;97523.84;;;3.83;78.41
70921;BME280;58572;48.110;19.838;2022-12-07T01:32:14;97522.41;;;3.76;78.49
70921;BME280;58572;48.110;19.838;2022-12-07T01:34:41;97525.22;;;4.08;77.73
70921;BME280;58572;48.110;19.838;2022-12-07T01:37:08;97519.09;;;3.91;77.27
70921;BME280;58572;48.110;19.838;2022-12-07T01:39:35;97482.44;;;3.84;77.25
70921;BME280;58572;48.110;19.838;2022-12-07T01:42:03;97523.47;;;3.97;77.96
70921;BME280;58572;48.110;19.838;2022-12-07T01:44:30;97523.78;;;4.00;77.92
70921;BME280;58572;48.110;19.838;2022-12-07T01:47:00;97520.00;;;4.18;77.48
70921;BME280;58572;48.110;19.838;2022-12-07T01:49:31;97507.97;;;2.93;80.36
70921;BME280;58572;48.110;19.838;2022-12-07T01:52:14;97519.69;;;3.54;79.42
70921;BME280;58572;48.110;19.838;2022-12-07T01:54:43;97515.84;;;3.50;79.55
70921;BME280;58572;48.110;19.838;2022-12-07T01:57:13;97505.31;;;3.65;80.18
70921;BME280;58572;48.110;19.838;2022-12-07T01:59:42;97416.38;;;2.89;80.09
70921;BME280;58572;48.110;19.838;2022-12-07T02:02:18;97504.53;;;3.48;79.67
70921;BME280;58572;48.110;19.838;2022-12-07T02:04:46;97489.00;;;3.50;79.71
70921;BME280;58572;48.110;19.838;2022-12-07T02:07:13;97512.47;;;3.76;79.08
70921;BME280;58572;48.110;19.838;2022-12-07T02:09:41;97509.59;;;3.44;80.77
70921;BME280;58572;48.110;19.838;2022-12-07T02:12:08;97507.94;;;3.60;80.67
70921;BME280;58572;48.110;19.838;2022-12-07T02:14:35;97508.81;;;3.27;81.04
70921;BME280;58572;48.110;19.838;2022-12-07T02:17:09;97510.63;;;3.60;79.92
70921;BME280;58572;48.110;19.838;2022-12-07T02:26:23;97432.47;;;3.06;79.43
70921;BME280;58572;48.110;19.838;2022-12-07T02:29:18;97501.44;;;3.56;78.54
70921;BME280;58572;48.110;19.838;2022-12-07T02:31:56;97503.13;;;3.24;79.68
70921;BME280;58572;48.110;19.838;2022-12-07T02:34:33;97502.50;;;3.55;78.48
70921;BME280;58572;48.110;19.838;2022-12-07T02:37:06;97500.16;;;3.42;79.05
70921;BME280;58572;48.110;19.838;2022-12-07T02:39:42;97495.06;;;3.62;78.90
70921;BME280;58572;48.110;19.838;2022-12-07T02:42:15;97498.53;;;3.41;78.67
70921;BME280;58572;48.110;19.838;2022-12-07T02:44:46;97485.44;;;3.66;78.71
70921;BME280;58572;48.110;19.838;2022-12-07T02:47:16;97499.44;;;3.68;78.99
70921;BME280;58572;48.110;19.838;2022-12-07T02:49:44;97484.53;;;3.39;78.98
70921;BME280;58572;48.110;19.838;2022-12-07T02:52:11;97489.31;;;3.75;78.18
70921;BME280;58572;48.110;19.838;2022-12-07T02:54:38;97486.25;;;3.89;77.54
70921;BME280;58572;48.110;19.838;2022-12-07T02:57:14;97483.50;;;3.83;78.52
70921;BME280;58572;48.110;19.838;2022-12-07T02:59:55;97485.00;;;3.74;78.88
70921;BME280;58572;48.110;19.838;2022-12-07T03:02:33;97457.31;;;3.52;78.74
70921;BME280;58572;48.110;19.838;2022-12-07T03:05:17;97484.50;;;3.77;79.62
70921;BME280;58572;48.110;19.838;2022-12-07T03:07:52;97485.38;;;4.05;78.70
70921;BME280;58572;48.110;19.838;2022-12-07T03:10:25;97489.56;;;3.96;78.78
70921;BME280;58572;48.110;19.838;2022-12-07T03:13:02;97486.50;;;3.65;79.55
70921;BME280;58572;48.110;19.838;2022-12-07T03:15:33;97488.03;;;3.06;82.08
70921;BME280;58572;48.110;19.838;2022-12-07T03:18:04;97491.41;;;3.13;81.45
70921;BME280;58572;48.110;19.838;2022-12-07T03:20:32;97491.38;;;3.30;80.96
70921;BME280;58572;48.110;19.838;2022-12-07T03:23:03;97482.09;;;3.37;81.07
70921;BME280;58572;48.110;19.838;2022-12-07T03:25:33;97484.81;;;3.59;80.17
70921;BME280;58572;48.110;19.838;2022-12-07T03:28:02;97473.78;;;3.39;81.82
70921;BME280;58572;48.110;19.838;2022-12-07T03:30:37;97477.69;;;3.48;81.02
70921;BME280;58572;48.110;19.838;2022-12-07T03:33:09;97473.81;;;3.82;79.51
70921;BME280;58572;48.110;19.838;2022-12-07T03:35:40;97488.19;;;3.71;80.24
70921;BME280;58572;48.110;19.838;2022-12-07T03:38:15;97476.88;;;3.69;79.85
70921;BME280;58572;48.110;19.838;2022-12-07T03:40:47;97424.16;;;3.25;80.42
70921;BME280;58572;48.110;19.838;2022-12-07T03:43:17;97472.44;;;3.58;80.88
70921;BME280;58572;48.110;19.838;2022-12-07T03:45:53;97480.94;;;3.50;81.16
70921;BME280;58572;48.110;19.838;2022-12-07T03:48:31;97483.19;;;3.58;80.95
70921;BME280;58572;48.110;19.838;2022-12-07T03:51:06;97478.25;;;3.72;79.80
70921;BME280;58572;48.110;19.838;2022-12-07T03:53:40;97480.63;;;3.46;80.84
70921;BME280;58572;48.110;19.838;2022-12-07T03:56:11;97449.19;;;3.69;79.72
70921;BME280;58572;48.110;19.838;2022-12-07T03:58:40;97484.53;;;3.39;80.44
70921;BME280;58572;48.110;19.838;2022-12-07T04:01:09;97481.19;;;3.70;80.34
70921;BME280;58572;48.110;19.838;2022-12-07T04:03:36;97480.16;;;3.33;81.11
70921;BME280;58572;48.110;19.838;2022-12-07T04:06:04;97477.84;;;3.41;81.34
70921;BME280;58572;48.110;19.838;2022-12-07T04:08:31;97479.38;;;3.76;80.18
70921;BME280;58572;48.110;19.838;2022-12-07T04:10:58;97478.66;;;3.42;81.40
70921;BME280;58572;48.110;19.838;2022-12-07T04:13:25;97474.00;;;3.15;82.17
70921;BME280;58572;48.110;19.838;2022-12-07T04:15:55;97473.50;;;3.57;80.82
70921;BME280;58572;48.110;19.838;2022-12-07T04:18:23;97465.44;;;3.57;81.17
70921;BME280;58572;48.110;19.838;2022-12-07T04:20:50;97465.06;;;3.70;80.99
70921;BME280;58572;48.110;19.838;2022-12-07T04:23:18;97465.81;;;3.44;81.64
70921;BME280;58572;48.110;19.838;2022-12-07T04:25:47;97469.19;;;3.78;80.47
70921;BME280;58572;48.110;19.838;2022-12-07T04:28:14;97475.81;;;3.70;79.90
70921;BME280;58572;48.110;19.838;2022-12-07T04:30:42;97469.19;;;3.56;80.96
70921;BME280;58572;48.110;19.838;2022-12-07T04:33:09;97464.88;;;3.77;79.80
70921;BME280;58572;48.110;19.838;2022-12-07T04:35:37;97474.00;;;3.15;81.58
70921;BME280;58572;48.110;19.838;2022-12-07T04:38:04;97374.06;;;3.13;80.72
70921;BME280;58572;48.110;19.838;2022-12-07T04:40:32;97470.25;;;3.77;80.41
70921;BME280;58572;48.110;19.838;2022-12-07T04:42:59;97438.84;;;2.67;82.98
70921;BME280;58572;48.110;19.838;2022-12-07T04:45:26;97482.44;;;3.24;82.32
70921;BME280;58572;48.110;19.838;2022-12-07T04:47:53;97433.00;;;3.42;80.64
70921;BME280;58572;48.110;19.838;2022-12-07T04:50:20;97478.25;;;3.50;81.55
70921;BME280;58572;48.110;19.838;2022-12-07T04:52:48;97486.41;;;3.38;81.76
70921;BME280;58572;48.110;19.838;2022-12-07T04:55:16;97476.22;;;3.40;81.76
70921;BME280;58572;48.110;19.838;2022-12-07T04:57:43;97472.44;;;3.58;81.20
70921;BME280;58572;48.110;19.838;2022-12-07T05:00:12;97486.09;;;3.35;82.20
70921;BME280;58572;48.110;19.838;2022-12-07T05:02:39;97477.63;;;3.65;80.87
70921;BME280;58572;48.110;19.838;2022-12-07T05:05:07;97488.56;;;4.02;79.59
70921;BME280;58572;48.110;19.838;2022-12-07T05:07:34;97472.81;;;3.89;79.53
70921;BME280;58572;48.110;19.838;2022-12-07T05:10:03;97482.75;;;3.66;80.49
70921;BME280;58572;48.110;19.838;2022-12-07T05:12:31;97490.34;;;3.14;83.07
70921;BME280;58572;48.110;19.838;2022-12-07T05:14:58;97480.06;;;3.66;81.37
70921;BME280;58572;48.110;19.838;2022-12-07T05:17:25;97451.88;;;3.69;79.57
70921;BME280;58572;48.110;19.838;2022-12-07T05:19:52;97469.75;;;3.80;81.35
70921;BME280;58572;48.110;19.838;2022-12-07T05:22:19;97483.25;;;4.07;79.50
70921;BME280;58572;48.110;19.838;2022-12-07T05:24:47;97478.19;;;3.89;79.98
70921;BME280;58572;48.110;19.838;2022-12-07T05:27:15;97374.41;;;2.83;81.02
70921;BME280;58572;48.110;19.838;2022-12-07T05:29:42;97476.44;;;3.77;80.66
70921;BME280;58572;48.110;19.838;2022-12-07T05:32:09;97477.47;;;2.99;83.71
70921;BME280;58572;48.110;19.838;2022-12-07T05:34:36;97468.06;;;3.52;82.13
70921;BME280;58572;48.110;19.838;2022-12-07T05:37:04;97477.94;;;3.68;81.36
70921;BME280;58572;48.110;19.838;2022-12-07T05:39:31;97476.06;;;3.91;79.67
70921;BME280;58572;48.110;19.838;2022-12-07T05:41:58;97475.38;;;3.78;80.39
70921;BME280;58572;48.110;19.838;2022-12-07T05:44:46;97466.06;;;3.64;80.84
70921;BME280;58572;48.110;19.838;2022-12-07T05:47:14;97464.50;;;3.90;80.64
70921;BME280;58572;48.110;19.838;2022-12-07T05:49:41;97472.38;;;3.97;80.37
70921;BME280;58572;48.110;19.838;2022-12-07T05:52:08;97476.19;;;3.57;81.82
70921;BME280;58572;48.110;19.838;2022-12-07T05:54:35;97473.38;;;3.69;80.78
70921;BME280;58572;48.110;19.838;2022-12-07T05:57:03;97470.06;;;3.83;80.57
70921;BME280;58572;48.110;19.838;2022-12-07T05:59:30;97473.81;;;3.82;80.19
70921;BME280;58572;48.110;19.838;2022-12-07T06:01:58;97470.75;;;3.96;80.34
70921;BME280;58572;48.110;19.838;2022-12-07T06:04:28;97474.88;;;4.25;78.68
70921;BME280;58572;48.110;19.838;2022-12-07T06:06:55;97480.94;;;3.94;79.55
70921;BME280;58572;48.110;19.838;2022-12-07T06:09:24;97474.56;;;4.00;80.49
70921;BME280;58572;48.110;19.838;2022-12-07T06:11:51;97471.69;;;3.84;80.15
70921;BME280;58572;48.110;19.838;2022-12-07T06:14:35;97480.13;;;3.49;82.00
70921;BME280;58572;48.110;19.838;2022-12-07T06:17:04;97475.75;;;3.27;83.27
70921;BME280;58572;48.110;19.838;2022-12-07T06:19:32;97478.88;;;3.57;81.88
70921;BME280;58572;48.110;19.838;2022-12-07T06:21:59;97469.13;;;3.73;80.70
70921;BME280;58572;48.110;19.838;2022-12-07T06:24:26;97475.19;;;3.63;81.30
70921;BME280;58572;48.110;19.838;2022-12-07T06:26:53;97475.44;;;3.83;80.59
70921;BME280;58572;48.110;19.838;2022-12-07T06:29:20;97473.28;;;3.42;82.79
70921;BME280;58572;48.110;19.838;2022-12-07T06:31:47;97473.75;;;3.56;82.00
70921;BME280;58572;48.110;19.838;2022-12-07T06:34:18;97475.41;;;3.40;82.48
70921;BME280;58572;48.110;19.838;2022-12-07T06:36:45;97487.13;;;3.72;81.27
70921;BME280;58572;48.110;19.838;2022-12-07T06:39:16;97494.06;;;3.30;82.56
70921;BME280;58572;48.110;19.838;2022-12-07T06:41:44;97490.94;;;3.76;81.30
70921;BME280;58572;48.110;19.838;2022-12-07T06:44:11;97488.28;;;3.38;81.58
70921;BME280;58572;48.110;19.838;2022-12-07T06:46:38;97490.09;;;2.99;83.87
70921;BME280;58572;48.110;19.838;2022-12-07T06:49:05;97475.81;;;3.48;83.37
70921;BME280;58572;48.110;19.838;2022-12-07T06:51:34;97475.75;;;3.27;83.01
70921;BME280;58572;48.110;19.838;2022-12-07T06:54:06;97472.09;;;3.33;82.54
70921;BME280;58572;48.110;19.838;2022-12-07T06:56:33;97473.44;;;3.52;82.50
70921;BME280;58572;48.110;19.838;2022-12-07T06:59:00;97449.19;;;3.47;81.49
70921;BME280;58572;48.110;19.838;2022-12-07T07:01:27;97485.25;;;3.51;82.41
70921;BME280;58572;48.110;19.838;2022-12-07T07:03:55;97486.81;;;3.47;82.54
70921;BME280;58572;48.110;19.838;2022-12-07T07:06:22;97491.06;;;3.65;81.79
70921;BME280;58572;48.110;19.838;2022-12-07T07:08:50;97484.94;;;3.69;81.49
70921;BME280;58572;48.110;19.838;2022-12-07T07:11:17;97488.44;;;3.70;81.66
70921;BME280;58572;48.110;19.838;2022-12-07T07:13:45;97355.25;;;2.41;82.81
70921;BME280;58572;48.110;19.838;2022-12-07T07:16:12;97469.94;;;3.73;81.42
70921;BME280;58572;48.110;19.838;2022-12-07T07:18:39;97474.88;;;3.60;81.53
70921;BME280;58572;48.110;19.838;2022-12-07T07:21:06;97484.19;;;3.52;82.58
70921;BME280;58572;48.110;19.838;2022-12-07T07:23:33;97478.00;;;3.73;81.78
70921;BME280;58572;48.110;19.838;2022-12-07T07:26:02;97480.22;;;3.38;82.74
70921;BME280;58572;48.110;19.838;2022-12-07T07:28:29;97481.63;;;3.62;82.39
70921;BME280;58572;48.110;19.838;2022-12-07T07:30:56;97476.13;;;3.96;80.80
70921;BME280;58572;48.110;19.838;2022-12-07T07:33:24;97479.75;;;3.63;81.66
70921;BME280;58572;48.110;19.838;2022-12-07T07:35:51;97472.00;;;3.88;81.20
70921;BME280;58572;48.110;19.838;2022-12-07T07:38:19;97478.91;;;3.40;82.61
70921;BME280;58572;48.110;19.838;2022-12-07T07:40:48;97487.44;;;3.54;82.32
70921;BME280;58572;48.110;19.838;2022-12-07T07:43:16;97483.88;;;3.92;81.10
70921;BME280;58572;48.110;19.838;2022-12-07T07:45:44;97494.75;;;3.20;82.59
70921;BME280;58572;48.110;19.838;2022-12-07T07:48:11;97495.91;;;3.46;83.19
70921;BME280;58572;48.110;19.838;2022-12-07T07:50:38;97489.03;;;3.94;81.23
70921;BME280;58572;48.110;19.838;2022-12-07T07:53:05;97492.75;;;3.71;81.81
70921;BME280;58572;48.110;19.838;2022-12-07T07:55:32;97491.94;;;3.70;81.46
70921;BME280;58572;48.110;19.838;2022-12-07T07:57:59;97487.06;;;3.67;82.00
70921;BME280;58572;48.110;19.838;2022-12-07T08:00:28;97489.88;;;3.77;81.30
70921;BME280;58572;48.110;19.838;2022-12-07T08:02:55;97489.31;;;3.75;82.14
70921;BME280;58572;48.110;19.838;2022-12-07T08:05:22;97487.75;;;4.01;80.95
70921;BME280;58572;48.110;19.838;2022-12-07T08:07:50;97493.41;;;4.00;81.00
70921;BME280;58572;48.110;19.838;2022-12-07T08:10:18;97492.75;;;3.71;81.83
70921;BME280;58572;48.110;19.838;2022-12-07T08:12:46;97493.44;;;4.05;80.91
70921;BME280;58572;48.110;19.838;2022-12-07T08:15:32;97495.59;;;4.03;80.88
70921;BME280;58572;48.110;19.838;2022-12-07T08:17:59;97496.09;;;4.00;81.08
70921;BME280;58572;48.110;19.838;2022-12-07T08:20:26;97500.81;;;4.14;80.47
70921;BME280;58572;48.110;19.838;2022-12-07T08:22:53;97514.34;;;3.98;81.08
70921;BME280;58572;48.110;19.838;2022-12-07T08:25:20;97514.34;;;3.98;81.29
70921;BME280;58572;48.110;19.838;2022-12-07T08:27:48;97515.03;;;4.32;79.70
70921;BME280;58572;48.110;19.838;2022-12-07T08:30:15;97515.09;;;4.15;79.94
70921;BME280;58572;48.110;19.838;2022-12-07T08:32:46;97512.34;;;4.10;80.18
70921;BME280;58572;48.110;19.838;2022-12-07T08:35:13;97518.16;;;3.41;83.02
70921;BME280;58572;48.110;19.838;2022-12-07T08:37:41;97524.09;;;4.04;81.08
70921;BME280;58572;48.110;19.838;2022-12-07T08:40:10;97510.38;;;4.22;80.08
70921;BME280;58572;48.110;19.838;2022-12-07T08:42:40;97516.97;;;4.14;80.36
70921;BME280;58572;48.110;19.838;2022-12-07T08:45:09;97508.84;;;3.88;81.32
70921;BME280;58572;48.110;19.838;2022-12-07T08:47:39;97516.84;;;4.04;81.65
70921;BME280;58572;48.110;19.838;2022-12-07T08:50:10;97512.59;;;4.30;80.84
70921;BME280;58572;48.110;19.838;2022-12-07T08:52:37;97512.28;;;4.05;80.54
70921;BME280;58572;48.110;19.838;2022-12-07T08:55:09;97513.84;;;4.01;81.94
70921;BME280;58572;48.110;19.838;2022-12-07T08:57:37;97519.75;;;4.20;80.69
70921;BME280;58572;48.110;19.838;2022-12-07T09:00:07;97526.72;;;3.99;81.49
70921;BME280;58572;48.110;19.838;2022-12-07T09:02:34;97531.69;;;4.29;80.27
70921;BME280;58572;48.110;19.838;2022-12-07T09:05:02;97534.97;;;4.14;80.43
70921;BME280;58572;48.110;19.838;2022-12-07T09:07:32;97543.66;;;3.77;81.45
70921;BME280;58572;48.110;19.838;2022-12-07T09:09:59;97528.97;;;4.07;81.53
70921;BME280;58572;48.110;19.838;2022-12-07T09:12:27;97534.13;;;4.30;80.27
70921;BME280;58572;48.110;19.838;2022-12-07T09:14:54;97531.47;;;3.92;80.10
70921;BME280;58572;48.110;19.838;2022-12-07T09:17:21;97525.81;;;4.32;81.20
70921;BME280;58572;48.110;19.838;2022-12-07T09:19:48;97518.72;;;4.47;79.11
70921;BME280;58572;48.110;19.838;2022-12-07T09:22:15;97485.59;;;4.74;78.45
70921;BME280;58572;48.110;19.838;2022-12-07T09:24:44;97511.44;;;5.07;78.16
70921;BME280;58572;48.110;19.838;2022-12-07T09:27:11;97507.75;;;4.54;78.73
70921;BME280;58572;48.110;19.838;2022-12-07T09:29:38;97515.09;;;4.64;78.81
70921;BME280;58572;48.110;19.838;2022-12-07T09:32:05;97514.34;;;4.41;79.18
70921;BME280;58572;48.110;19.838;2022-12-07T09:34:33;97513.28;;;4.42;79.14
70921;BME280;58572;48.110;19.838;2022-12-07T09:37:01;97508.44;;;4.18;79.94
70921;BME280;58572;48.110;19.838;2022-12-07T09:39:28;97518.13;;;4.19;80.03
70921;BME280;58572;48.110;19.838;2022-12-07T09:41:58;97470.81;;;4.01;79.79
70921;BME280;58572;48.110;19.838;2022-12-07T09:44:27;97499.00;;;4.42;79.24
70921;BME280;58572;48.110;19.838;2022-12-07T09:46:55;97513.53;;;4.41;79.07
70921;BME280;58572;48.110;19.838;2022-12-07T09:49:25;97508.66;;;4.38;79.80
70921;BME280;58572;48.110;19.838;2022-12-07T09:52:00;97391.31;;;3.17;80.32
70921;BME280;58572;48.110;19.838;2022-12-07T09:54:29;97508.91;;;4.14;79.94
70921;BME280;58572;48.110;19.838;2022-12-07T09:56:58;97504.78;;;3.85;80.33
70921;BME280;58572;48.110;19.838;2022-12-07T09:59:26;97506.84;;;4.00;79.90
70921;BME280;58572;48.110;19.838;2022-12-07T10:01:53;97473.88;;;4.09;79.38
70921;BME280;58572;48.110;19.838;2022-12-07T10:04:22;97504.28;;;4.10;78.95
70921;BME280;58572;48.110;19.838;2022-12-07T10:06:50;97500.47;;;4.06;78.27
70921;BME280;58572;48.110;19.838;2022-12-07T10:09:19;97492.31;;;4.01;78.83
70921;BME280;58572;48.110;19.838;2022-12-07T10:12:07;97496.84;;;4.17;79.18
70921;BME280;58572;48.110;19.838;2022-12-07T10:14:38;97494.06;;;4.34;77.53
70921;BME280;58572;48.110;19.838;2022-12-07T10:17:28;97484.13;;;4.12;79.09
70921;BME280;58572;48.110;19.838;2022-12-07T10:20:12;97481.13;;;4.58;76.97
70921;BME280;58572;48.110;19.838;2022-12-07T10:22:54;97453.72;;;4.12;77.18
70921;BME280;58572;48.110;19.838;2022-12-07T10:25:24;97478.44;;;4.09;78.52
70921;BME280;58572;48.110;19.838;2022-12-07T10:28:03;97487.00;;;4.28;78.05
70921;BME280;58572;48.110;19.838;2022-12-07T10:30:47;97478.19;;;4.32;77.90
70921;BME280;58572;48.110;19.838;2022-12-07T10:33:31;97478.19;;;4.32;77.98
70921;BME280;58572;48.110;19.838;2022-12-07T10:36:00;97483.34;;;4.66;78.29
70921;BME280;58572;48.110;19.838;2022-12-07T10:38:28;97482.16;;;4.84;76.91
70921;BME280;58572;48.110;19.838;2022-12-07T10:41:06;97446.19;;;4.36;78.00
70921;BME280;58572;48.110;19.838;2022-12-07T10:43:35;97473.75;;;4.75;76.84
70921;BME280;58572;48.110;19.838;2022-12-07T10:49:13;97467.25;;;4.71;77.08
70921;BME280;58572;48.110;19.838;2022-12-07T10:51:49;97423.75;;;4.25;77.15
70921;BME280;58572;48.110;19.838;2022-12-07T10:54:28;97466.94;;;3.92;78.38
70921;BME280;58572;48.110;19.838;2022-12-07T10:57:15;97459.00;;;4.51;77.70
70921;BME280;58572;48.110;19.838;2022-12-07T11:00:00;97467.59;;;4.79;77.93
70921;BME280;58572;48.110;19.838;2022-12-07T11:02:43;97471.78;;;4.65;77.48
70921;BME280;58572;48.110;19.838;2022-12-07T11:05:21;97468.84;;;4.40;78.13
70921;BME280;58572;48.110;19.838;2022-12-07T11:08:00;97476.69;;;3.98;77.05
70921;BME280;58572;48.110;19.838;2022-12-07T11:10:35;97464.72;;;4.59;77.12
70921;BME280;58572;48.110;19.838;2022-12-07T11:13:19;97412.41;;;3.96;77.47
70921;BME280;58572;48.110;19.838;2022-12-07T11:16:06;97475.56;;;4.15;77.64
70921;BME280;58572;48.110;19.838;2022-12-07T11:18:48;97479.81;;;3.90;76.85
70921;BME280;58572;48.110;19.838;2022-12-07T11:21:23;97482.44;;;4.28;75.63
70921;BME280;58572;48.110;19.838;2022-12-07T11:24:01;97441.13;;;3.91;77.61
70921;BME280;58572;48.110;19.838;2022-12-07T11:29:47;97463.47;;;4.40;76.96
70921;BME280;58572;48.110;19.838;2022-12-07T11:32:34;97462.38;;;3.92;77.09
70921;BME280;58572;48.110;19.838;2022-12-07T11:35:13;97449.94;;;4.62;76.45
70921;BME280;58572;48.110;19.838;2022-12-07T11:37:44;97451.69;;;4.46;77.26
70921;BME280;58572;48.110;19.838;2022-12-07T11:40:17;97442.66;;;4.94;76.33
70921;BME280;58572;48.110;19.838;2022-12-07T11:42:52;97441.94;;;4.72;76.94
70921;BME280;58572;48.110;19.838;2022-12-07T11:45:24;97445.56;;;4.88;76.81
70921;BME280;58572;48.110;19.838;2022-12-07T11:47:58;97437.28;;;4.62;76.84
70921;BME280;58572;48.110;19.838;2022-12-07T11:50:30;97441.63;;;5.00;76.48
70921;BME280;58572;48.110;19.838;2022-12-07T11:53:02;97441.69;;;5.10;74.78
70921;BME280;58572;48.110;19.838;2022-12-07T11:55:41;97436.22;;;5.32;75.63
70921;BME280;58572;48.110;19.838;2022-12-07T11:58:18;97423.16;;;5.19;76.51
70921;BME280;58572;48.110;19.838;2022-12-07T12:00:49;97434.00;;;4.28;76.55
70921;BME280;58572;48.110;19.838;2022-12-07T12:03:25;97417.91;;;4.33;76.84
70921;BME280;58572;48.110;19.838;2022-12-07T12:05:57;97415.34;;;5.18;75.93
70921;BME280;58572;48.110;19.838;2022-12-07T12:08:28;97369.88;;;4.84;75.78
70921;BME280;58572;48.110;19.838;2022-12-07T12:11:05;97402.81;;;4.96;76.68
70921;BME280;58572;48.110;19.838;2022-12-07T12:13:55;97381.72;;;4.83;75.50
70921;BME280;58572;48.110;19.838;2022-12-07T12:16:46;97402.66;;;5.13;75.75
70921;BME280;58572;48.110;19.838;2022-12-07T12:19:33;97405.75;;;5.32;75.79
70921;BME280;58572;48.110;19.838;2022-12-07T12:22:09;97397.56;;;5.17;76.03
70921;BME280;58572;48.110;19.838;2022-12-07T12:24:40;97357.75;;;5.24;75.67
70921;BME280;58572;48.110;19.838;2022-12-07T12:27:17;97399.88;;;5.45;74.61
70921;BME280;58572;48.110;19.838;2022-12-07T12:29:53;97381.78;;;5.35;75.85
70921;BME280;58572;48.110;19.838;2022-12-07T12:32:22;97350.28;;;5.41;74.46
70921;BME280;58572;48.110;19.838;2022-12-07T12:35:02;97397.22;;;5.50;75.41
70921;BME280;58572;48.110;19.838;2022-12-07T12:37:43;97384.78;;;5.44;74.95
70921;BME280;58572;48.110;19.838;2022-12-07T12:40:41;97394.50;;;4.66;76.18
70921;BME280;58572;48.110;19.838;2022-12-07T12:49:35;97401.41;;;5.26;76.02
70921;BME280;58572;48.110;19.838;2022-12-07T12:55:20;97394.81;;;5.54;75.38
70921;BME280;58572;48.110;19.838;2022-12-07T13:03:55;97410.19;;;5.11;75.36
70921;BME280;58572;48.110;19.838;2022-12-07T13:06:34;97411.09;;;5.22;75.62
70921;BME280;58572;48.110;19.838;2022-12-07T13:09:03;97414.34;;;5.24;75.59
70921;BME280;58572;48.110;19.838;2022-12-07T13:11:35;97415.78;;;5.04;74.85
70921;BME280;58572;48.110;19.838;2022-12-07T13:17:08;97423.22;;;5.24;75.55
70921;BME280;58572;48.110;19.838;2022-12-07T13:19:54;97420.88;;;5.01;75.19
70921;BME280;58572;48.110;19.838;2022-12-07T13:22:43;97429.59;;;4.76;75.37
70921;BME280;58572;48.110;19.838;2022-12-07T13:25:20;97381.34;;;4.69;75.85
70921;BME280;58572;48.110;19.838;2022-12-07T13:27:59;97421.34;;;4.56;75.56
70921;BME280;58572;48.110;19.838;2022-12-07T13:30:29;97436.91;;;4.80;74.27
70921;BME280;58572;48.110;19.838;2022-12-07T13:32:58;97211.22;;;3.29;75.06
70921;BME280;58572;48.110;19.838;2022-12-07T13:35:30;97440.53;;;4.96;73.95
70921;BME280;58572;48.110;19.838;2022-12-07T13:37:58;97365.63;;;4.24;75.16
70921;BME280;58572;48.110;19.838;2022-12-07T13:40:25;97437.34;;;5.04;74.87
70921;BME280;58572;48.110;19.838;2022-12-07T13:43:01;97448.63;;;4.64;75.62
70921;BME280;58572;48.110;19.838;2022-12-07T13:45:30;97440.50;;;4.59;76.59
70921;BME280;58572;48.110;19.838;2022-12-07T13:48:20;97445.84;;;4.54;76.99
70921;BME280;58572;48.110;19.838;2022-12-07T13:50:53;97455.09;;;4.36;75.55